Time;durP1;ratioP1;P1;durP2;ratioP2;P2;SDS_P1;SDS_P2;PMS_P1;PMS_P2;Temp;Humidity;BMP_temperature;BMP_pressure;BME280_temperature;BME280_humidity;BME280_pressure;Samples;Min_cycle;Max_cycle;Signal;HPM_P1;HPM_P2
2021/09/04 00:01:34;;;;;;;8.27;5.90;;;;;;;12.57;100.00;101284.75;5099130;28;20447;-80
2021/09/04 00:04:02;;;;;;;12.17;6.30;;;;;;;12.52;100.00;101284.03;5098706;28;20491;-80
2021/09/04 00:06:28;;;;;;;11.87;5.73;;;;;;;12.57;100.00;101281.22;5098663;28;20464;-80
2021/09/04 00:08:55;;;;;;;12.53;6.90;;;;;;;12.53;100.00;101288.38;5099411;28;20440;-80
2021/09/04 00:11:22;;;;;;;12.30;5.87;;;;;;;12.37;100.00;101283.16;5099148;28;20448;-80
2021/09/04 00:13:49;;;;;;;11.27;6.47;;;;;;;12.37;100.00;101277.72;5099032;28;20466;-79
2021/09/04 00:16:15;;;;;;;16.03;6.10;;;;;;;12.24;100.00;101278.47;5099169;28;20468;-79
2021/09/04 00:18:42;;;;;;;13.13;7.97;;;;;;;12.00;100.00;101277.78;5098993;28;20839;-80
2021/09/04 00:21:10;;;;;;;12.77;5.60;;;;;;;11.97;100.00;101275.63;5099109;28;20447;-79
2021/09/04 00:23:36;;;;;;;12.10;6.03;;;;;;;11.97;100.00;101268.28;5099053;28;20486;-79
2021/09/04 00:26:03;;;;;;;12.73;7.00;;;;;;;12.14;100.00;101275.94;5098738;28;20439;-79
2021/09/04 00:28:29;;;;;;;13.77;7.47;;;;;;;12.15;100.00;101274.00;5099317;28;20452;-79
2021/09/04 00:30:56;;;;;;;16.23;6.07;;;;;;;12.22;100.00;101266.28;5099383;28;20799;-80
2021/09/04 00:33:22;;;;;;;11.10;6.10;;;;;;;12.21;100.00;101268.19;5099099;28;20437;-79
2021/09/04 00:35:49;;;;;;;9.97;6.00;;;;;;;12.19;100.00;101270.41;5099027;28;20449;-79
2021/09/04 00:38:17;;;;;;;18.77;7.77;;;;;;;12.09;100.00;101271.38;5099037;28;20441;-79
2021/09/04 00:40:43;;;;;;;12.03;6.73;;;;;;;12.09;100.00;101267.84;5098696;28;20440;-79
2021/09/04 00:43:10;;;;;;;10.73;6.63;;;;;;;12.09;100.00;101265.16;5098181;28;20440;-79
2021/09/04 00:45:36;;;;;;;16.27;7.07;;;;;;;12.21;100.00;101268.19;5098571;28;20467;-79
2021/09/04 00:48:05;;;;;;;12.17;6.30;;;;;;;12.11;100.00;101268.34;5098384;28;20830;-79
2021/09/04 00:50:34;;;;;;;6.57;3.97;;;;;;;12.13;100.00;101268.88;5098808;28;20437;-79
2021/09/04 00:53:01;;;;;;;10.93;6.13;;;;;;;12.14;100.00;101273.22;5098265;28;20460;-79
2021/09/04 00:55:29;;;;;;;10.90;6.03;;;;;;;12.00;100.00;101273.16;5098275;28;20451;-79
2021/09/04 00:57:56;;;;;;;10.23;8.13;;;;;;;11.91;100.00;101274.06;5097247;28;20463;-79
2021/09/04 01:00:23;;;;;;;8.97;6.83;;;;;;;11.96;100.00;101276.75;5099072;28;20451;-79
2021/09/04 01:02:50;;;;;;;13.53;6.60;;;;;;;11.83;100.00;101268.22;5098696;28;20451;-79
2021/09/04 01:05:16;;;;;;;11.53;8.00;;;;;;;11.80;100.00;101268.75;5098313;28;20840;-80
2021/09/04 01:07:43;;;;;;;14.50;7.27;;;;;;;11.85;100.00;101270.63;5098381;28;20468;-79
2021/09/04 01:10:11;;;;;;;8.90;6.37;;;;;;;11.83;100.00;101268.22;5096966;28;20443;-79
2021/09/04 01:12:39;;;;;;;9.07;6.23;;;;;;;11.73;100.00;101267.50;5096781;28;20446;-79
2021/09/04 01:15:08;;;;;;;6.47;4.90;;;;;;;11.57;100.00;101270.41;5096960;28;20436;-80
2021/09/04 01:17:35;;;;;;;8.77;5.00;;;;;;;11.52;100.00;101258.84;5096917;28;20479;-79
2021/09/04 01:20:02;;;;;;;9.97;6.27;;;;;;;11.45;100.00;101258.38;5096419;28;21027;-79
2021/09/04 01:22:31;;;;;;;11.67;6.50;;;;;;;11.44;100.00;101256.75;5096068;28;20444;-79
2021/09/04 01:25:02;;;;;;;7.37;5.53;;;;;;;11.53;100.00;101257.72;5095952;28;20488;-79
2021/09/04 01:27:30;;;;;;;9.43;5.87;;;;;;;11.59;100.00;101257.34;5095477;28;20456;-79
2021/09/04 01:29:56;;;;;;;9.23;6.13;;;;;;;11.60;100.00;101263.63;5095691;28;20945;-79
2021/09/04 01:32:23;;;;;;;8.27;5.27;;;;;;;11.71;100.00;101261.56;5095640;28;20484;-79
2021/09/04 01:34:49;;;;;;;7.50;5.07;;;;;;;11.71;100.00;101267.81;5102618;28;20448;-79
2021/09/04 01:37:15;;;;;;;10.80;7.40;;;;;;;11.70;100.00;101259.97;5103222;28;20463;-80
2021/09/04 01:39:42;;;;;;;16.10;8.27;;;;;;;11.66;100.00;101257.00;5102994;28;20429;-80
2021/09/04 01:42:08;;;;;;;11.10;7.03;;;;;;;11.77;100.00;101263.09;5102553;28;20456;-80
2021/09/04 01:44:37;;;;;;;8.43;5.43;;;;;;;11.70;100.00;101251.81;5102486;28;20575;-80
2021/09/04 01:47:03;;;;;;;6.77;5.33;;;;;;;11.77;100.00;101253.03;5102981;28;20813;-80
2021/09/04 01:49:30;;;;;;;11.20;6.37;;;;;;;11.76;100.00;101259.59;5104096;28;20449;-80
2021/09/04 01:51:57;;;;;;;10.50;6.47;;;;;;;11.60;100.00;101252.75;5103385;28;20542;-80
2021/09/04 01:54:23;;;;;;;20.10;7.73;;;;;;;11.68;100.00;101252.09;5104211;28;20440;-80
2021/09/04 01:56:50;;;;;;;12.30;6.17;;;;;;;11.63;100.00;101252.16;5105336;28;20456;-80
2021/09/04 01:59:16;;;;;;;11.03;6.73;;;;;;;11.57;100.00;101248.72;5106444;28;20444;-80
2021/09/04 02:01:44;;;;;;;12.13;5.70;;;;;;;11.54;100.00;101243.06;5106000;28;20427;-80
2021/09/04 02:04:10;;;;;;;8.67;4.77;;;;;;;11.57;100.00;101242.47;5106503;28;20476;-80
2021/09/04 02:06:37;;;;;;;10.30;6.37;;;;;;;11.60;100.00;101239.19;5106813;28;20452;-80
2021/09/04 02:09:04;;;;;;;8.20;4.93;;;;;;;11.63;100.00;101246.72;5107101;28;20451;-80
2021/09/04 02:11:30;;;;;;;21.93;6.27;;;;;;;11.60;100.00;101237.28;5107662;28;20470;-80
2021/09/04 02:13:56;;;;;;;11.07;5.90;;;;;;;11.46;100.00;101235.56;5108566;28;20432;-80
2021/09/04 02:16:23;;;;;;;8.63;5.13;;;;;;;11.39;100.00;101241.34;5108315;28;20468;-80
2021/09/04 02:18:51;;;;;;;12.10;6.27;;;;;;;11.34;100.00;101238.72;5107490;28;20440;-80
2021/09/04 02:21:17;;;;;;;14.17;6.90;;;;;;;11.25;100.00;101233.13;5111727;28;20444;-80
2021/09/04 02:23:46;;;;;;;8.30;5.23;;;;;;;11.26;100.00;101237.44;5106785;28;20427;-79
2021/09/04 02:26:12;;;;;;;11.00;6.90;;;;;;;11.19;100.00;101236.97;5102581;28;20468;-79
2021/09/04 02:28:39;;;;;;;10.47;6.10;;;;;;;11.18;100.00;101240.78;5102328;28;20954;-79
2021/09/04 02:31:05;;;;;;;9.57;6.30;;;;;;;11.28;100.00;101248.78;5102805;28;20440;-79
2021/09/04 02:33:32;;;;;;;10.60;6.37;;;;;;;11.17;100.00;101247.31;5102740;28;20444;-79
2021/09/04 02:35:59;;;;;;;13.73;7.43;;;;;;;11.37;100.00;101244.34;5103628;28;20435;-79
2021/09/04 02:38:26;;;;;;;8.80;4.60;;;;;;;11.51;100.00;101243.63;5102544;28;20812;-79
2021/09/04 02:40:52;;;;;;;11.70;6.57;;;;;;;11.52;100.00;101239.84;5101180;28;20437;-79
2021/09/04 02:43:19;;;;;;;7.73;4.60;;;;;;;11.44;100.00;101240.47;5099306;28;20443;-80
2021/09/04 02:45:45;;;;;;;7.63;5.57;;;;;;;11.39;100.00;101245.97;5099352;28;20495;-79
2021/09/04 02:48:12;;;;;;;9.13;5.17;;;;;;;11.39;100.00;101243.25;5098386;28;20425;-80
2021/09/04 02:50:38;;;;;;;10.20;5.73;;;;;;;11.45;100.00;101233.94;5097572;28;20968;-81
2021/09/04 02:53:07;;;;;;;12.37;5.93;;;;;;;11.43;100.00;101242.38;5098660;28;20821;-80
2021/09/04 02:55:34;;;;;;;10.27;4.93;;;;;;;11.43;100.00;101253.25;5101112;28;20805;-78
2021/09/04 02:58:00;;;;;;;13.23;5.40;;;;;;;11.39;100.00;101245.97;5103726;28;20464;-79
2021/09/04 03:00:27;;;;;;;20.00;5.97;;;;;;;11.56;100.00;101246.31;5104822;28;20440;-79
2021/09/04 03:02:54;;;;;;;15.43;6.57;;;;;;;11.71;100.00;101248.81;5105105;28;20456;-79
2021/09/04 03:05:21;;;;;;;11.27;6.20;;;;;;;11.71;100.00;101254.22;5104989;28;20488;-79
2021/09/04 03:07:48;;;;;;;17.50;8.00;;;;;;;11.74;100.00;101242.78;5102994;28;20473;-80
2021/09/04 03:10:16;;;;;;;10.73;6.07;;;;;;;11.63;100.00;101242.09;5099816;28;20788;-80
2021/09/04 03:12:43;;;;;;;38.97;6.83;;;;;;;11.77;100.00;101238.69;5099904;28;20429;-80
2021/09/04 03:15:10;;;;;;;11.07;6.80;;;;;;;11.86;100.00;101245.94;5099909;28;20440;-80
2021/09/04 03:17:37;;;;;;;9.37;5.57;;;;;;;11.97;100.00;101245.75;5099688;28;20973;-80
2021/09/04 03:20:05;;;;;;;14.07;6.83;;;;;;;12.08;100.00;101241.78;5099130;28;20451;-81
2021/09/04 03:22:31;;;;;;;8.77;5.53;;;;;;;12.15;100.00;101241.44;5102401;28;20440;-79
2021/09/04 03:24:58;;;;;;;19.60;7.00;;;;;;;12.25;100.00;101247.50;5102028;28;20849;-79
2021/09/04 03:27:25;;;;;;;16.90;6.47;;;;;;;12.38;100.00;101246.75;5096145;28;20488;-79
2021/09/04 03:29:52;;;;;;;16.03;7.93;;;;;;;12.48;100.00;101256.63;5063359;28;20445;-79
2021/09/04 03:32:18;;;;;;;14.87;7.07;;;;;;;12.54;100.00;101260.91;5063375;28;20448;-80
2021/09/04 03:34:45;;;;;;;11.33;6.20;;;;;;;12.55;100.00;101261.69;5064232;28;20438;-80
2021/09/04 03:37:11;;;;;;;14.20;6.90;;;;;;;12.58;100.00;101259.19;5098439;22;20496;-68
2021/09/04 03:39:38;;;;;;;15.20;5.13;;;;;;;12.67;100.00;101259.31;5097244;28;20523;-68
2021/09/04 03:42:04;;;;;;;11.30;5.50;;;;;;;12.75;100.00;101261.34;5097356;28;20460;-67
2021/09/04 03:44:32;;;;;;;10.40;6.07;;;;;;;12.80;100.00;101266.69;5097135;28;20483;-68
2021/09/04 03:47:00;;;;;;;20.00;9.23;;;;;;;12.80;100.00;101266.69;5097161;28;20437;-68
2021/09/04 03:49:26;;;;;;;10.57;5.97;;;;;;;12.86;100.00;101268.22;5097108;28;20444;-67
2021/09/04 03:51:53;;;;;;;9.77;4.60;;;;;;;12.88;100.00;101263.28;5096954;28;20460;-67
2021/09/04 03:54:19;;;;;;;10.23;5.73;;;;;;;12.86;100.00;101270.13;5097015;28;20444;-68
2021/09/04 03:56:46;;;;;;;7.23;4.30;;;;;;;12.87;100.00;101272.53;5096807;28;20982;-67
2021/09/04 03:59:12;;;;;;;6.30;3.50;;;;;;;12.84;100.00;101267.72;5097108;28;20436;-68
2021/09/04 04:01:40;;;;;;;9.27;4.67;;;;;;;12.83;100.00;101266.09;5096756;28;20467;-68
2021/09/04 04:04:06;;;;;;;7.63;3.60;;;;;;;12.81;100.00;101264.78;5096732;28;20436;-67
2021/09/04 04:06:33;;;;;;;5.63;3.00;;;;;;;12.78;100.00;101270.81;5096534;28;20437;-68
2021/09/04 04:08:59;;;;;;;7.90;4.13;;;;;;;12.73;100.00;101262.75;5096499;28;20852;-68
2021/09/04 04:11:26;;;;;;;6.33;3.73;;;;;;;12.72;100.00;101266.56;5096703;28;20468;-68
2021/09/04 04:13:52;;;;;;;5.77;3.93;;;;;;;12.77;100.00;101270.00;5096600;28;20432;-67
2021/09/04 04:16:19;;;;;;;7.77;2.53;;;;;;;12.78;100.00;101271.63;5096380;28;20930;-67
2021/09/04 04:18:47;;;;;;;4.57;3.37;;;;;;;12.84;100.00;101270.44;5096568;28;20440;-68
2021/09/04 04:21:13;;;;;;;5.33;3.40;;;;;;;12.85;100.00;101272.03;5096364;28;20451;-68
2021/09/04 04:23:40;;;;;;;8.70;4.70;;;;;;;12.93;100.00;101275.19;5096504;28;20436;-68
2021/09/04 04:26:07;;;;;;;10.00;5.50;;;;;;;12.98;100.00;101280.53;5096311;28;20886;-68
2021/09/04 04:28:33;;;;;;;12.97;5.07;;;;;;;13.01;100.00;101288.06;5095924;28;20929;-67
2021/09/04 04:31:01;;;;;;;6.40;4.50;;;;;;;13.04;100.00;101284.75;5096263;28;20447;-67
2021/09/04 04:33:28;;;;;;;6.30;3.73;;;;;;;13.03;100.00;101277.72;5095963;28;20517;-68
2021/09/04 04:35:55;;;;;;;7.33;4.20;;;;;;;13.02;100.00;101287.78;5095831;28;20968;-68
2021/09/04 04:38:22;;;;;;;8.87;3.97;;;;;;;13.04;100.00;101290.19;5096185;28;20425;-68
2021/09/04 04:40:48;;;;;;;8.50;5.10;;;;;;;13.03;100.00;101294.03;5096098;28;20444;-67
2021/09/04 04:43:15;;;;;;;10.47;4.23;;;;;;;13.07;100.00;101295.84;5095960;28;20464;-67
2021/09/04 04:45:41;;;;;;;8.47;3.80;;;;;;;13.12;100.00;101303.09;5096193;28;20479;-67
2021/09/04 04:48:07;;;;;;;6.73;4.20;;;;;;;13.09;100.00;101295.53;5095684;28;20449;-67
2021/09/04 04:50:34;;;;;;;7.90;3.40;;;;;;;13.09;100.00;101303.69;5095640;28;20959;-67
2021/09/04 04:53:02;;;;;;;7.17;3.77;;;;;;;13.12;100.00;101306.63;5100116;22;20485;-76
2021/09/04 04:55:29;;;;;;;6.83;3.53;;;;;;;13.19;100.00;101306.22;5071592;28;20522;-76
2021/09/04 04:57:55;;;;;;;6.23;3.70;;;;;;;13.26;100.00;101303.16;5055426;28;20959;-76
2021/09/04 05:00:21;;;;;;;7.00;5.00;;;;;;;13.26;100.00;101305.88;5055413;28;20958;-76
2021/09/04 05:02:48;;;;;;;8.30;4.30;;;;;;;13.29;100.00;101308.81;5055871;28;20470;-76
2021/09/04 05:05:15;;;;;;;6.70;4.70;;;;;;;13.29;100.00;101303.38;5055965;28;20492;-77
2021/09/04 05:07:42;;;;;;;7.53;3.80;;;;;;;13.30;100.00;101307.69;5056196;28;20930;-78
2021/09/04 05:10:10;;;;;;;6.97;4.07;;;;;;;13.37;100.00;101307.31;5060136;28;20442;-78
2021/09/04 05:12:37;;;;;;;5.80;3.23;;;;;;;13.38;100.00;101307.00;5058789;28;20563;-77
2021/09/04 05:15:04;;;;;;;8.60;5.33;;;;;;;13.37;100.00;101307.31;5057519;28;20445;-77
2021/09/04 05:17:31;;;;;;;4.30;2.90;;;;;;;13.33;100.00;101309.81;5057268;28;20442;-77
2021/09/04 05:19:57;;;;;;;7.10;3.73;;;;;;;13.37;100.00;101310.03;5057505;28;20450;-78
2021/09/04 05:22:23;;;;;;;6.40;3.20;;;;;;;13.38;100.00;101301.56;5057797;28;20482;-78
2021/09/04 05:24:50;;;;;;;11.60;4.20;;;;;;;13.39;100.00;101310.50;5057122;28;21010;-77
2021/09/04 05:27:18;;;;;;;7.00;3.90;;;;;;;13.40;100.00;101308.59;5056558;28;20442;-76
2021/09/04 05:29:44;;;;;;;5.23;2.60;;;;;;;13.32;100.00;101315.53;5054922;28;20450;-76
2021/09/04 05:32:10;;;;;;;6.30;3.20;;;;;;;13.35;100.00;101314.94;5054581;28;20995;-75
2021/09/04 05:34:37;;;;;;;7.47;3.53;;;;;;;13.37;100.00;101310.81;5054741;28;20446;-74
2021/09/04 05:37:04;;;;;;;5.50;2.93;;;;;;;13.41;100.00;101315.66;5054805;28;20453;-75
2021/09/04 05:39:30;;;;;;;11.63;5.07;;;;;;;13.46;100.00;101324.53;5054689;28;20438;-75
2021/09/04 05:41:56;;;;;;;9.10;5.00;;;;;;;13.54;100.00;101314.84;5054234;28;20930;-75
2021/09/04 05:44:24;;;;;;;5.80;3.20;;;;;;;13.55;100.00;101313.75;5053861;28;20453;-74
2021/09/04 05:46:51;;;;;;;7.13;4.33;;;;;;;13.56;100.00;101318.09;5054597;28;20477;-74
2021/09/04 05:49:17;;;;;;;5.37;3.50;;;;;;;13.56;100.00;101318.09;5054760;28;20447;-74
2021/09/04 05:51:43;;;;;;;6.13;3.57;;;;;;;13.59;100.00;101321.00;5054421;28;20828;-75
2021/09/04 05:54:10;;;;;;;6.40;2.73;;;;;;;13.56;100.00;101315.38;5053519;28;20443;-74
2021/09/04 05:56:36;;;;;;;7.53;3.13;;;;;;;13.63;100.00;101323.91;5053795;28;20446;-73
2021/09/04 05:59:03;;;;;;;8.60;6.07;;;;;;;13.69;100.00;101322.72;5053531;28;20848;-74
2021/09/04 06:01:31;;;;;;;7.17;4.07;;;;;;;13.68;100.00;101318.38;5053428;28;20442;-72
2021/09/04 06:03:57;;;;;;;8.93;4.33;;;;;;;13.70;100.00;101318.88;5053295;28;20466;-71
2021/09/04 06:06:24;;;;;;;5.70;2.43;;;;;;;13.72;100.00;101319.38;5053239;28;20485;-71
2021/09/04 06:08:50;;;;;;;6.43;3.90;;;;;;;13.77;100.00;101319.28;5053263;28;20445;-72
2021/09/04 06:11:17;;;;;;;16.37;3.63;;;;;;;13.83;100.00;101323.50;5053344;28;20503;-72
2021/09/04 06:13:43;;;;;;;7.10;2.70;;;;;;;13.77;100.00;101327.44;5052814;28;20458;-71
2021/09/04 06:16:10;;;;;;;7.37;2.80;;;;;;;13.86;100.00;101327.53;5053188;28;20465;-74
2021/09/04 06:18:38;;;;;;;8.27;3.70;;;;;;;13.89;100.00;101327.72;5053356;28;20445;-75
2021/09/04 06:21:04;;;;;;;7.10;3.73;;;;;;;13.98;100.00;101332.44;5053249;28;20446;-72
2021/09/04 06:23:31;;;;;;;18.10;4.00;;;;;;;14.14;100.00;101322.84;5053008;28;20466;-74
2021/09/04 06:25:57;;;;;;;5.80;3.60;;;;;;;14.20;100.00;101324.31;5052950;28;20478;-72
2021/09/04 06:28:23;;;;;;;11.13;4.43;;;;;;;14.21;100.00;101325.13;5052951;28;20454;-73
2021/09/04 06:30:50;;;;;;;5.00;3.20;;;;;;;14.25;100.00;101323.41;5052554;28;20944;-73
2021/09/04 06:33:16;;;;;;;8.03;4.00;;;;;;;14.30;100.00;101315.13;5052801;28;20462;-73
2021/09/04 06:35:44;;;;;;;9.57;5.33;;;;;;;14.38;100.00;101317.09;5052879;28;20442;-73
2021/09/04 06:38:10;;;;;;;5.30;2.73;;;;;;;14.41;100.00;101313.78;5052545;28;20529;-73
2021/09/04 06:40:37;;;;;;;8.07;3.43;;;;;;;14.51;100.00;101321.72;5052886;28;20450;-73
2021/09/04 06:43:04;;;;;;;5.30;3.20;;;;;;;14.58;100.00;101327.56;5052815;28;20459;-73
2021/09/04 06:45:30;;;;;;;10.80;5.60;;;;;;;14.59;100.00;101331.09;5052724;28;20493;-73
2021/09/04 06:47:56;;;;;;;8.17;3.80;;;;;;;14.58;100.00;101332.22;5052818;28;20481;-72
2021/09/04 06:50:23;;;;;;;8.30;3.70;;;;;;;14.45;100.00;101330.31;5052770;28;20446;-73
2021/09/04 06:52:51;;;;;;;5.90;3.17;;;;;;;14.47;100.00;101342.50;5016268;28;1043600;-73
2021/09/04 06:55:17;;;;;;;6.57;2.77;;;;;;;14.52;100.00;101344.34;5053365;28;20634;-77
2021/09/04 06:57:44;;;;;;;7.83;3.90;;;;;;;14.53;100.00;101349.50;5053072;28;20972;-76
2021/09/04 07:00:11;;;;;;;5.57;3.30;;;;;;;14.54;100.00;101351.09;5053071;28;20947;-76
2021/09/04 07:02:38;;;;;;;6.13;4.40;;;;;;;14.49;100.00;101348.50;5053266;28;20485;-76
2021/09/04 07:05:05;;;;;;;6.70;3.60;;;;;;;14.51;100.00;101346.25;5053832;28;20438;-73
2021/09/04 07:07:32;;;;;;;7.40;2.83;;;;;;;14.58;100.00;101348.56;5053214;28;20438;-72
2021/09/04 07:09:59;;;;;;;8.37;4.00;;;;;;;14.61;100.00;101347.97;5054038;28;20434;-76
2021/09/04 07:12:26;;;;;;;5.70;3.53;;;;;;;14.61;100.00;101353.41;5053307;28;20465;-75
2021/09/04 07:14:52;;;;;;;4.73;3.10;;;;;;;14.63;100.00;101357.44;5053209;28;20492;-76
2021/09/04 07:17:19;;;;;;;5.90;2.63;;;;;;;14.62;100.00;101365.94;5053262;28;20818;-76
2021/09/04 07:19:47;;;;;;;7.90;3.17;;;;;;;14.70;100.00;101365.19;5053135;28;20438;-76
2021/09/04 07:22:13;;;;;;;9.87;5.53;;;;;;;14.71;100.00;101361.34;5052969;28;20842;-74
2021/09/04 07:24:41;;;;;;;7.63;3.97;;;;;;;14.76;100.00;101355.75;5053404;28;20450;-76
2021/09/04 07:27:09;;;;;;;7.90;5.47;;;;;;;14.84;100.00;101356.94;5052113;28;20585;-76
2021/09/04 07:29:35;;;;;;;4.80;2.83;;;;;;;14.84;100.00;101362.41;5053277;28;20442;-75
2021/09/04 07:32:02;;;;;;;6.30;3.73;;;;;;;14.83;100.00;101372.50;5052933;28;20462;-75
2021/09/04 07:34:28;;;;;;;4.63;2.50;;;;;;;14.93;100.00;101368.72;5053077;28;20449;-76
2021/09/04 07:36:54;;;;;;;10.23;4.40;;;;;;;14.91;100.00;101368.22;5052678;28;20453;-76
2021/09/04 07:39:21;;;;;;;5.20;3.90;;;;;;;14.99;100.00;101363.94;5052917;28;20853;-77
2021/09/04 07:41:47;;;;;;;5.57;3.03;;;;;;;15.05;100.00;101362.69;5052933;28;20438;-75
2021/09/04 07:44:15;;;;;;;10.80;4.17;;;;;;;15.08;100.00;101360.13;5052972;28;20446;-75
2021/09/04 07:46:42;;;;;;;5.20;3.20;;;;;;;15.11;100.00;101366.91;5052495;28;21002;-76
2021/09/04 07:49:08;;;;;;;7.13;3.03;;;;;;;15.20;100.00;101359.56;5052927;28;20862;-76
2021/09/04 07:51:35;;;;;;;8.30;4.20;;;;;;;15.27;100.00;101365.41;5052866;28;20449;-75
2021/09/04 07:54:01;;;;;;;4.67;3.23;;;;;;;15.25;100.00;101362.16;5052692;28;20458;-75
2021/09/04 07:56:28;;;;;;;6.30;2.87;;;;;;;15.36;100.00;101368.97;5052828;28;20439;-76
2021/09/04 07:58:54;;;;;;;8.60;4.40;;;;;;;15.39;100.00;101373.78;5052804;28;20482;-76
2021/09/04 08:01:23;;;;;;;11.33;4.80;;;;;;;15.37;100.00;101375.25;5052759;28;20454;-76
2021/09/04 08:03:49;;;;;;;12.43;5.50;;;;;;;15.43;100.00;101376.69;5052908;28;20470;-75
2021/09/04 08:06:15;;;;;;;9.83;4.77;;;;;;;15.58;100.00;101380.94;5052606;28;20553;-76
2021/09/04 08:08:42;;;;;;;5.70;3.80;;;;;;;15.62;100.00;101381.91;5055820;28;20935;-76
2021/09/04 08:11:08;;;;;;;9.10;4.77;;;;;;;15.70;100.00;101383.09;5057000;28;20453;-75
2021/09/04 08:13:35;;;;;;;6.80;4.10;;;;;;;15.77;100.00;101383.47;5056239;28;20473;-76
2021/09/04 08:16:01;;;;;;;10.27;4.80;;;;;;;15.85;100.00;101397.16;5056437;28;20848;-76
2021/09/04 08:18:29;;;;;;;10.40;4.17;;;;;;;15.67;100.00;101398.22;5056286;28;20442;-74
2021/09/04 08:20:56;;;;;;;8.10;3.63;;;;;;;15.77;100.00;101397.13;5056426;28;20441;-73
2021/09/04 08:23:22;;;;;;;9.67;4.20;;;;;;;15.85;100.00;101401.81;5056467;28;20454;-74
2021/09/04 08:25:49;;;;;;;11.73;4.37;;;;;;;15.89;100.00;101397.31;5055745;28;20486;-75
2021/09/04 08:28:15;;;;;;;8.20;4.10;;;;;;;15.91;100.00;101403.28;5056200;28;20915;-75
2021/09/04 08:30:42;;;;;;;7.30;3.40;;;;;;;15.97;100.00;101403.91;5056030;28;20450;-75
2021/09/04 08:33:08;;;;;;;6.67;4.17;;;;;;;15.94;100.00;101399.09;5055821;28;21013;-74
2021/09/04 08:35:36;;;;;;;7.47;4.40;;;;;;;16.00;100.00;101404.09;5055827;28;20430;-75
2021/09/04 08:38:06;;;;;;;11.07;5.10;;;;;;;16.06;100.00;101407.47;5055894;28;20442;-74
2021/09/04 08:40:33;;;;;;;7.67;4.20;;;;;;;16.13;100.00;101413.31;5056028;28;20426;-74
2021/09/04 08:43:00;;;;;;;11.03;5.90;;;;;;;16.14;100.00;101409.44;5055469;28;20465;-74
2021/09/04 08:45:27;;;;;;;19.43;4.73;;;;;;;16.20;100.00;101401.88;5056148;28;20442;-75
2021/09/04 08:47:54;;;;;;;10.37;4.77;;;;;;;16.24;100.00;101400.13;5055698;28;20484;-73
2021/09/04 08:50:22;;;;;;;8.43;4.50;;;;;;;16.28;100.00;101410.09;5055682;28;20446;-74
2021/09/04 08:52:50;;;;;;;10.43;4.70;;;;;;;16.38;100.00;101412.56;5055292;28;20474;-72
2021/09/04 08:55:17;;;;;;;11.73;4.30;;;;;;;16.36;100.00;101409.31;5055539;28;20453;-72
2021/09/04 08:57:45;;;;;;;10.13;4.40;;;;;;;16.29;100.00;101417.19;5059679;28;20457;-72
2021/09/04 09:00:12;;;;;;;9.90;3.97;;;;;;;16.22;100.00;101408.66;5075600;28;20450;-73
2021/09/04 09:02:44;;;;;;;8.43;3.97;;;;;;;16.18;100.00;101421.34;5075190;28;20468;-74
2021/09/04 09:05:11;;;;;;;14.43;4.97;;;;;;;16.16;100.00;101423.59;5075474;28;20429;-72
2021/09/04 09:07:42;;;;;;;11.60;4.27;;;;;;;16.25;100.00;101421.69;5075330;28;20481;-73
2021/09/04 09:10:30;;;;;;;10.23;4.83;;;;;;;16.42;100.00;101425.56;5075336;28;20445;-74
2021/09/04 09:12:56;;;;;;;10.57;4.33;;;;;;;16.58;100.00;101423.97;5075276;28;20465;-73
2021/09/04 09:15:24;;;;;;;9.07;4.40;;;;;;;16.75;100.00;101424.03;5075203;28;20471;-73
2021/09/04 09:18:02;;;;;;;9.33;4.53;;;;;;;16.81;100.00;101427.38;5075035;28;20440;-74
2021/09/04 09:20:29;;;;;;;13.13;5.20;;;;;;;16.77;100.00;101418.22;5074542;28;20421;-73
2021/09/04 09:23:04;;;;;;;15.93;4.53;;;;;;;16.79;99.89;101429.66;5074594;28;21025;-73
2021/09/04 09:25:32;;;;;;;5.80;3.43;;;;;;;16.80;99.63;101429.31;5074957;28;20429;-74
2021/09/04 09:28:01;;;;;;;18.43;4.80;;;;;;;16.78;100.00;101428.84;5075262;28;20538;-74
2021/09/04 09:30:36;;;;;;;13.63;5.50;;;;;;;16.83;100.00;101425.16;5074691;28;20440;-74
2021/09/04 09:33:04;;;;;;;7.40;3.60;;;;;;;16.72;100.00;101426.56;5074536;28;20467;-73
2021/09/04 09:35:32;;;;;;;12.40;4.00;;;;;;;16.73;100.00;101420.78;5074609;28;20445;-74
2021/09/04 09:37:59;;;;;;;8.63;3.67;;;;;;;16.78;99.95;101428.84;5074490;28;20441;-74
2021/09/04 09:40:26;;;;;;;8.67;4.07;;;;;;;16.83;100.00;101431.44;5074387;28;20950;-73
2021/09/04 09:42:53;;;;;;;9.30;4.90;;;;;;;16.86;100.00;101429.97;5074522;28;20507;-73
2021/09/04 09:45:20;;;;;;;6.97;4.13;;;;;;;16.77;100.00;101427.22;5074523;28;20452;-73
2021/09/04 09:47:51;;;;;;;5.83;3.27;;;;;;;16.76;100.00;101427.56;5074651;28;20491;-73
2021/09/04 09:50:18;;;;;;;13.83;4.70;;;;;;;16.78;100.00;101436.25;5074520;28;20459;-73
2021/09/04 09:52:45;;;;;;;9.07;4.40;;;;;;;16.81;100.00;101433.66;5074211;28;20538;-67
2021/09/04 09:55:12;;;;;;;19.43;4.80;;;;;;;16.90;100.00;101439.13;5074142;28;20477;-72
2021/09/04 09:57:41;;;;;;;10.77;5.17;;;;;;;16.94;99.78;101442.03;5074299;28;20450;-72
2021/09/04 10:00:10;;;;;;;7.57;3.40;;;;;;;16.95;99.46;101443.63;5075227;28;20484;-72
2021/09/04 10:02:37;;;;;;;12.20;4.13;;;;;;;16.90;100.00;101434.47;5074257;28;20465;-72
2021/09/04 10:05:05;;;;;;;14.53;4.07;;;;;;;16.84;100.00;101435.75;5073605;28;20441;-72
2021/09/04 10:07:31;;;;;;;8.53;3.43;;;;;;;16.85;100.00;101433.81;5074144;28;20480;-72
2021/09/04 10:09:58;;;;;;;8.47;3.80;;;;;;;16.85;100.00;101433.81;5074203;28;20444;-73
2021/09/04 10:12:25;;;;;;;7.30;3.77;;;;;;;16.90;100.00;101426.25;5074372;28;20462;-73
2021/09/04 10:14:52;;;;;;;23.63;5.93;;;;;;;16.97;99.86;101428.53;5074209;28;20468;-73
2021/09/04 10:17:21;;;;;;;13.13;4.00;;;;;;;17.09;99.58;101433.34;5074103;28;20441;-73
2021/09/04 10:19:49;;;;;;;6.03;4.10;;;;;;;17.08;99.29;101432.50;5074084;28;20469;-73
2021/09/04 10:22:16;;;;;;;5.80;3.73;;;;;;;17.03;99.30;101434.63;5073942;28;20550;-71
2021/09/04 10:24:49;;;;;;;7.60;4.23;;;;;;;17.12;99.74;101427.19;5074137;28;20437;-73
2021/09/04 10:27:30;;;;;;;7.27;4.77;;;;;;;17.13;99.46;101434.28;5073886;28;20499;-73
2021/09/04 10:29:56;;;;;;;14.30;4.87;;;;;;;17.11;98.72;101425.59;5073541;28;20438;-74
2021/09/04 10:32:24;;;;;;;21.80;5.33;;;;;;;17.03;98.42;101440.09;5073730;28;20469;-73
2021/09/04 10:35:05;;;;;;;6.30;3.70;;;;;;;17.04;98.70;101433.50;5073743;28;20445;-73
2021/09/04 10:37:31;;;;;;;9.53;4.63;;;;;;;16.94;99.13;101436.56;5073652;28;20789;-73
2021/09/04 10:39:59;;;;;;;8.87;3.77;;;;;;;16.93;99.54;101434.97;5073393;28;20453;-73
2021/09/04 10:42:28;;;;;;;8.30;3.70;;;;;;;16.93;99.89;101426.75;5073605;28;20497;-72
2021/09/04 10:45:00;;;;;;;7.17;3.27;;;;;;;16.96;100.00;101440.59;5073315;28;20441;-73
2021/09/04 10:47:28;;;;;;;7.90;3.60;;;;;;;16.90;100.00;101429.00;5073478;28;20481;-73
2021/09/04 10:49:57;;;;;;;10.00;4.00;;;;;;;16.81;100.00;101433.66;5073518;28;20441;-74
2021/09/04 10:53:02;;;;;;;8.27;2.80;;;;;;;16.86;100.00;101433.50;5074633;28;20511;-72
2021/09/04 10:55:30;;;;;;;6.10;3.10;;;;;;;17.03;100.00;101435.44;5073717;28;20425;-73
2021/09/04 10:58:05;;;;;;;9.53;5.13;;;;;;;17.03;99.75;101429.16;5073375;28;20437;-73
2021/09/04 11:00:37;;;;;;;6.07;3.67;;;;;;;17.11;98.99;101428.34;5073702;28;20781;-73
2021/09/04 11:03:06;;;;;;;9.67;4.37;;;;;;;17.23;98.98;101428.47;5073569;28;20870;-73
2021/09/04 11:05:44;;;;;;;6.43;3.73;;;;;;;17.28;98.16;101430.25;5073588;28;20449;-72
2021/09/04 11:08:12;;;;;;;7.20;4.60;;;;;;;17.32;98.18;101425.72;5073640;28;20461;-72
2021/09/04 11:10:39;;;;;;;5.27;3.20;;;;;;;17.40;97.85;101422.97;5073642;28;20441;-73
2021/09/04 11:13:27;;;;;;;7.93;4.57;;;;;;;17.32;97.01;101423.00;5073272;28;20470;-72
2021/09/04 11:15:54;;;;;;;8.47;3.87;;;;;;;17.34;97.38;101429.72;5072822;28;20445;-73